createdAt,value
2019-04-01T00:00:47.644Z,28.17
2019-04-01T00:03:16.182Z,28.67
2019-04-01T00:05:45.145Z,28.83
2019-04-01T00:08:13.703Z,27.27
2019-04-01T00:10:42.159Z,28.20
2019-04-01T00:13:10.643Z,27.27
2019-04-01T00:15:39.175Z,28.17
2019-04-01T00:18:07.735Z,27.63
2019-04-01T00:20:36.271Z,28.00
2019-04-01T00:23:04.924Z,27.60
2019-04-01T00:25:33.988Z,27.37
2019-04-01T00:28:02.808Z,26.40
2019-04-01T00:30:31.368Z,26.30
2019-04-01T00:32:59.907Z,26.73
2019-04-01T00:35:28.464Z,26.10
2019-04-01T00:37:56.919Z,27.70
2019-04-01T00:40:25.547Z,25.10
2019-04-01T00:42:55.947Z,26.57
2019-04-01T00:45:26.143Z,26.50
2019-04-01T00:47:54.957Z,24.67
2019-04-01T00:50:23.579Z,26.47
2019-04-01T00:52:52.043Z,25.73
2019-04-01T00:55:20.912Z,25.87
2019-04-01T00:57:49.367Z,27.10
2019-04-01T01:00:19.559Z,26.10
2019-04-01T01:02:48.014Z,25.57
2019-04-01T01:05:16.500Z,24.50
2019-04-01T01:07:44.955Z,24.80
2019-04-01T01:10:13.679Z,24.70
2019-04-01T01:12:42.136Z,24.90
2019-04-01T01:15:10.867Z,24.90
2019-04-01T01:17:39.396Z,26.27
2019-04-01T01:20:08.316Z,25.13
2019-04-01T01:22:36.847Z,25.40
2019-04-01T01:25:05.741Z,25.57
2019-04-01T01:27:34.349Z,25.70
2019-04-01T01:30:03.748Z,25.27
2019-04-01T01:32:32.202Z,24.70
2019-04-01T01:35:01.120Z,25.00
2019-04-01T01:37:29.575Z,23.83
2019-04-01T01:39:58.058Z,23.37
2019-04-01T01:42:26.583Z,25.03
2019-04-01T01:44:55.141Z,23.73
2019-04-01T01:47:23.936Z,23.10
2019-04-01T01:49:52.728Z,22.80
2019-04-01T01:52:21.296Z,24.80
2019-04-01T01:54:49.820Z,23.70
2019-04-01T01:57:18.317Z,23.80
2019-04-01T01:59:47.269Z,21.97
2019-04-01T02:02:15.752Z,23.07
2019-04-01T02:04:44.212Z,23.10
2019-04-01T02:07:12.768Z,23.37
2019-04-01T02:09:41.304Z,22.77
2019-04-01T02:12:10.080Z,22.60
2019-04-01T02:14:38.628Z,22.70
2019-04-01T02:17:07.181Z,22.70
2019-04-01T02:19:35.715Z,22.97
2019-04-01T02:22:04.341Z,22.70
2019-04-01T02:24:32.871Z,22.20
2019-04-01T02:27:01.359Z,21.53
2019-04-01T02:29:29.820Z,21.07
2019-04-01T02:31:58.379Z,20.80
2019-04-01T02:34:26.912Z,21.30
2019-04-01T02:36:55.479Z,22.37
2019-04-01T02:39:24.013Z,21.13
2019-04-01T02:41:52.648Z,22.00
2019-04-01T02:44:21.469Z,20.43
2019-04-01T02:46:50.100Z,20.67
2019-04-01T02:49:18.624Z,19.87
2019-04-01T02:51:47.112Z,19.80
2019-04-01T02:54:15.573Z,19.30
2019-04-01T02:56:44.401Z,18.93
2019-04-01T02:59:12.855Z,18.53
2019-04-01T03:01:41.409Z,18.13
2019-04-01T03:04:09.941Z,16.50
2019-04-01T03:06:38.497Z,17.10
2019-04-01T03:09:07.395Z,16.00
2019-04-01T03:11:35.933Z,17.20
2019-04-01T03:14:04.464Z,16.10
2019-04-01T03:16:33.024Z,16.67
2019-04-01T03:19:01.561Z,15.90
2019-04-01T03:21:30.125Z,15.37
2019-04-01T03:23:59.013Z,15.87
2019-04-01T03:26:27.573Z,15.90
2019-04-01T03:28:56.105Z,14.87
2019-04-01T03:31:24.937Z,14.53
2019-04-01T03:33:53.469Z,15.97
2019-04-01T03:36:22.033Z,16.30
2019-04-01T03:38:50.934Z,16.07
2019-04-01T03:41:19.468Z,15.97
2019-04-01T03:43:48.124Z,15.93
2019-04-01T03:46:16.613Z,15.50
2019-04-01T03:48:45.149Z,15.53
2019-04-01T03:51:13.716Z,13.90
2019-04-01T03:53:42.245Z,14.93
2019-04-01T03:56:10.785Z,14.70
2019-04-01T03:58:39.706Z,15.37
2019-04-01T04:01:08.587Z,15.00
2019-04-01T04:03:37.079Z,14.50
2019-04-01T04:06:05.555Z,15.13
2019-04-01T04:08:34.102Z,16.50
2019-04-01T04:11:02.773Z,15.17
2019-04-01T04:13:31.433Z,13.53
2019-04-01T04:15:59.965Z,15.27
2019-04-01T04:18:28.451Z,14.77
2019-04-01T04:20:56.986Z,14.80
2019-04-01T04:23:25.472Z,14.10
2019-04-01T04:25:54.006Z,14.47
2019-04-01T04:28:22.561Z,13.50
2019-04-01T04:30:51.249Z,13.63
2019-04-01T04:33:19.793Z,13.60
2019-04-01T04:35:48.660Z,13.80
2019-04-01T04:38:17.144Z,14.17
2019-04-01T04:40:45.677Z,13.43
2019-04-01T04:43:14.245Z,13.20
2019-04-01T04:45:42.796Z,13.40
2019-04-01T04:48:11.420Z,13.27
2019-04-01T04:50:39.958Z,13.70
2019-04-01T04:53:08.848Z,13.00
2019-04-01T04:55:37.512Z,14.07
2019-04-01T04:58:06.040Z,13.20
2019-04-01T05:00:35.113Z,12.87
2019-04-01T05:03:03.645Z,12.17
2019-04-01T05:05:32.271Z,13.10
2019-04-01T05:08:00.733Z,13.57
2019-04-01T05:10:29.297Z,13.83
2019-04-01T05:12:57.826Z,12.80
2019-04-01T05:15:26.382Z,11.97
2019-04-01T05:17:55.300Z,11.00
2019-04-01T05:20:23.851Z,11.87
2019-04-01T05:22:53.147Z,11.77
2019-04-01T05:25:21.777Z,12.77
2019-04-01T05:27:51.848Z,14.97
2019-04-01T05:30:20.483Z,13.30
2019-04-01T05:32:52.052Z,12.03
2019-04-01T05:35:20.791Z,12.17
2019-04-01T05:37:49.398Z,11.23
2019-04-01T05:40:18.024Z,12.57
2019-04-01T05:42:46.624Z,12.03
2019-04-01T05:45:15.560Z,11.30
2019-04-01T05:47:45.728Z,11.40
2019-04-01T05:50:14.548Z,10.43
2019-04-01T05:52:43.080Z,10.90
2019-04-01T05:55:11.632Z,10.97
2019-04-01T05:57:40.169Z,11.53
2019-04-01T06:00:10.600Z,10.80
2019-04-01T06:02:39.276Z,10.07
2019-04-01T06:05:08.377Z,10.70
2019-04-01T06:07:36.908Z,9.10
2019-04-01T06:10:08.243Z,9.77
2019-04-01T06:12:37.035Z,9.20
2019-04-01T06:15:08.519Z,9.30
2019-04-01T06:17:36.999Z,8.77
2019-04-01T06:20:06.501Z,8.80
2019-04-01T06:22:35.192Z,8.80
2019-04-01T06:25:04.480Z,7.60
2019-04-01T06:27:33.301Z,8.13
2019-04-01T06:30:02.052Z,8.30
2019-04-01T06:32:30.694Z,8.10
2019-04-01T06:34:59.203Z,7.47
2019-04-01T06:37:27.755Z,7.90
2019-04-01T06:39:56.212Z,7.50
2019-04-01T06:42:25.072Z,7.27
2019-04-01T06:44:54.140Z,6.80
2019-04-01T06:47:22.995Z,7.33
2019-04-01T06:49:51.529Z,7.33
2019-04-01T06:52:20.148Z,7.90
2019-04-01T06:54:48.678Z,7.20
2019-04-01T06:57:17.337Z,7.20
2019-04-01T06:59:46.008Z,6.60
2019-04-01T07:02:14.560Z,7.47
2019-04-01T07:04:43.155Z,7.03
2019-04-01T07:07:18.788Z,6.80
2019-04-01T07:09:42.284Z,7.20
2019-04-01T07:12:10.912Z,7.73
2019-04-01T07:14:39.436Z,6.37
2019-04-01T07:17:07.961Z,6.80
2019-04-01T07:19:36.511Z,6.90
2019-04-01T07:22:05.112Z,7.00
2019-04-01T07:24:33.664Z,6.93
2019-04-01T07:27:02.257Z,6.87
2019-04-01T07:29:31.234Z,7.17
2019-04-01T07:31:59.760Z,7.73
2019-04-01T07:34:28.400Z,6.60
2019-04-01T07:36:57.059Z,7.07
2019-04-01T07:39:25.693Z,7.37
2019-04-01T07:41:54.287Z,7.37
2019-04-01T07:44:22.846Z,8.90
2019-04-01T07:46:51.444Z,8.77
2019-04-01T07:49:21.022Z,8.00
2019-04-01T07:51:50.162Z,9.30
2019-04-01T07:54:19.329Z,8.93
2019-04-01T07:56:47.956Z,9.13
2019-04-01T07:59:16.863Z,10.10
2019-04-01T08:01:45.797Z,8.83
2019-04-01T08:04:14.325Z,9.53
2019-04-01T08:06:42.808Z,9.10
2019-04-01T08:09:11.413Z,10.27
2019-04-01T08:11:40.119Z,10.47
2019-04-01T08:14:08.676Z,9.60
2019-04-01T08:16:37.603Z,10.93
2019-04-01T08:19:06.240Z,10.50
2019-04-01T08:21:34.848Z,10.80
2019-04-01T08:24:03.549Z,10.70
2019-04-01T08:26:32.452Z,11.70
2019-04-01T08:29:01.008Z,10.60
2019-04-01T08:31:29.608Z,11.20
2019-04-01T08:33:58.068Z,11.20
2019-04-01T08:36:26.567Z,11.00
2019-04-01T08:38:55.633Z,11.77
2019-04-01T08:41:24.285Z,11.03
2019-04-01T08:43:52.844Z,11.40
2019-04-01T08:46:21.544Z,11.87
2019-04-01T08:48:50.420Z,12.23
2019-04-01T08:51:19.198Z,11.57
2019-04-01T08:53:47.833Z,12.57
2019-04-01T08:56:16.394Z,12.20
2019-04-01T08:58:45.208Z,11.83
2019-04-01T09:01:13.741Z,12.47
2019-04-01T09:03:42.273Z,11.80
2019-04-01T09:06:11.056Z,13.60
2019-04-01T09:08:40.385Z,12.47
2019-04-01T09:11:09.495Z,12.93
2019-04-01T09:13:38.372Z,12.83
2019-04-01T09:16:06.928Z,12.83
2019-04-01T09:18:35.387Z,14.00
2019-04-01T09:21:03.952Z,13.43
2019-04-01T09:23:32.556Z,13.53
2019-04-01T09:26:01.329Z,13.40
2019-04-01T09:28:29.868Z,12.97
2019-04-01T09:30:58.709Z,12.57
2019-04-01T09:33:27.279Z,12.70
2019-04-01T09:35:55.810Z,13.33
2019-04-01T09:38:24.656Z,12.27
2019-04-01T09:40:53.472Z,12.03
2019-04-01T09:43:22.104Z,12.30
2019-04-01T09:45:50.933Z,13.10
2019-04-01T09:48:19.484Z,13.10
2019-04-01T09:50:47.948Z,12.80
2019-04-01T09:53:16.436Z,13.33
2019-04-01T09:55:45.048Z,12.60
2019-04-01T09:58:13.587Z,13.67
2019-04-01T10:00:42.216Z,13.03
2019-04-01T10:03:11.114Z,13.13
2019-04-01T10:05:39.677Z,13.80
2019-04-01T10:08:08.480Z,12.30
2019-04-01T10:10:37.035Z,12.80
2019-04-01T10:13:05.568Z,12.60
2019-04-01T10:15:34.060Z,11.80
2019-04-01T10:18:02.519Z,12.17
2019-04-01T10:20:31.083Z,11.93
2019-04-01T10:22:59.548Z,12.40
2019-04-01T10:25:28.092Z,11.50
2019-04-01T10:27:56.724Z,12.80
2019-04-01T10:30:25.741Z,12.20
2019-04-01T10:32:54.305Z,11.50
2019-04-01T10:35:22.984Z,11.37
2019-04-01T10:37:51.900Z,11.30
2019-04-01T10:40:20.612Z,11.40
2019-04-01T10:42:49.143Z,10.57
2019-04-01T10:45:17.876Z,11.17
2019-04-01T10:47:46.513Z,11.60
2019-04-01T10:50:15.426Z,10.90
2019-04-01T10:52:44.467Z,10.30
2019-04-01T10:55:13.334Z,11.20
2019-04-01T10:57:43.659Z,10.80
2019-04-01T11:00:12.691Z,10.47
2019-04-01T11:02:41.244Z,10.70
2019-04-01T11:05:10.210Z,11.40
2019-04-01T11:07:38.774Z,10.70
2019-04-01T11:10:11.079Z,10.87
2019-04-01T11:12:38.234Z,10.47
2019-04-01T11:15:07.736Z,10.30
2019-04-01T11:17:36.211Z,11.33
2019-04-01T11:20:08.049Z,11.00
2019-04-01T11:22:36.776Z,10.38
2019-04-01T11:25:07.443Z,10.23
2019-04-01T11:27:36.319Z,9.50
2019-04-01T11:30:08.017Z,10.50
2019-04-01T11:32:37.511Z,11.08
2019-04-01T11:35:07.594Z,10.55
2019-04-01T11:37:36.307Z,11.27
2019-04-01T11:40:11.281Z,10.97
2019-04-01T11:42:40.333Z,11.90
2019-04-01T11:45:09.136Z,12.00
2019-04-01T11:47:37.810Z,12.00
2019-04-01T11:50:07.092Z,11.70
2019-04-01T11:52:35.647Z,12.93
2019-04-01T11:55:06.651Z,12.73
2019-04-01T11:57:35.510Z,13.13
2019-04-01T12:00:12.517Z,13.37
2019-04-01T12:02:39.217Z,13.50
2019-04-01T12:05:07.920Z,12.67
2019-04-01T12:07:36.760Z,13.57
2019-04-01T12:10:07.509Z,11.60
2019-04-01T12:12:35.567Z,12.83
2019-04-01T12:15:05.476Z,13.30
2019-04-01T12:17:34.007Z,12.53
2019-04-01T12:20:02.491Z,12.00
2019-04-01T12:22:30.956Z,12.23
2019-04-01T12:24:59.424Z,11.87
2019-04-01T12:27:27.991Z,12.37
2019-04-01T12:29:56.824Z,12.57
2019-04-01T12:32:25.356Z,12.90
2019-04-01T12:34:53.915Z,12.53
2019-04-01T12:37:22.452Z,13.23
2019-04-01T12:39:50.947Z,13.17
2019-04-01T12:42:19.733Z,12.60
2019-04-01T12:44:48.353Z,14.33
2019-04-01T12:47:17.276Z,12.83
2019-04-01T12:49:45.827Z,12.23
2019-04-01T12:52:14.284Z,12.53
2019-04-01T12:54:42.778Z,12.83
2019-04-01T12:57:11.308Z,13.10
2019-04-01T12:59:39.792Z,13.40
2019-04-01T13:02:08.251Z,13.23
2019-04-01T13:04:36.812Z,14.03
2019-04-01T13:07:05.475Z,11.70
2019-04-01T13:09:34.324Z,12.30
2019-04-01T13:12:03.725Z,13.13
2019-04-01T13:14:32.270Z,11.97
2019-04-01T13:17:01.201Z,12.47
2019-04-01T13:19:29.663Z,10.93
2019-04-01T13:21:58.159Z,11.87
2019-04-01T13:24:26.692Z,12.97
2019-04-01T13:26:55.264Z,10.93
2019-04-01T13:29:24.169Z,12.07
2019-04-01T13:31:52.775Z,11.13
2019-04-01T13:34:21.317Z,11.67
2019-04-01T13:36:50.071Z,11.80
2019-04-01T13:39:18.923Z,12.20
2019-04-01T13:41:47.392Z,11.70
2019-04-01T13:44:15.951Z,11.90
2019-04-01T13:46:48.206Z,11.60
2019-04-01T13:49:15.376Z,12.47
2019-04-01T13:51:43.953Z,12.10
2019-04-01T13:54:12.531Z,12.90
2019-04-01T13:56:42.906Z,12.80
2019-04-01T13:59:12.550Z,12.10
2019-04-01T14:01:41.857Z,12.87
2019-04-01T14:04:10.344Z,13.40
2019-04-01T14:06:38.808Z,12.70
2019-04-01T14:09:07.903Z,12.47
2019-04-01T14:11:36.441Z,13.37
2019-04-01T14:14:05.036Z,13.37
2019-04-01T14:16:33.874Z,13.23
2019-04-01T14:19:02.478Z,14.00
2019-04-01T14:21:31.240Z,14.67
2019-04-01T14:23:59.704Z,14.40
2019-04-01T14:26:28.535Z,14.37
2019-04-01T14:28:57.077Z,12.90
2019-04-01T14:31:25.716Z,14.03
2019-04-01T14:33:54.254Z,14.13
2019-04-01T14:36:22.807Z,13.30
2019-04-01T14:38:51.267Z,14.77
2019-04-01T14:41:19.832Z,15.13
2019-04-01T14:43:48.601Z,13.83
2019-04-01T14:46:17.136Z,14.90
2019-04-01T14:48:45.620Z,13.80
2019-04-01T14:51:14.301Z,15.17
2019-04-01T14:53:42.872Z,14.13
2019-04-01T14:56:11.407Z,14.40
2019-04-01T14:58:39.966Z,15.97
2019-04-01T15:01:08.636Z,14.47
2019-04-01T15:03:37.120Z,14.73
2019-04-01T15:06:05.582Z,14.27
2019-04-01T15:08:34.152Z,14.00
2019-04-01T15:11:02.682Z,14.90
2019-04-01T15:13:31.528Z,14.90
2019-04-01T15:16:00.079Z,15.87
2019-04-01T15:18:28.548Z,14.37
2019-04-01T15:20:57.104Z,14.73
2019-04-01T15:23:27.307Z,14.87
2019-04-01T15:25:55.779Z,13.57
2019-04-01T15:28:24.324Z,14.87
2019-04-01T15:30:52.884Z,14.93
2019-04-01T15:33:21.573Z,13.57
2019-04-01T15:35:50.183Z,14.70
2019-04-01T15:38:18.643Z,15.10
2019-04-01T15:40:47.284Z,14.23
2019-04-01T15:43:16.112Z,14.70
2019-04-01T15:45:44.648Z,14.57
2019-04-01T15:48:13.217Z,15.30
2019-04-01T15:50:41.752Z,14.00
2019-04-01T15:53:10.240Z,14.93
2019-04-01T15:55:38.778Z,14.93
2019-04-01T15:58:07.349Z,14.13
2019-04-01T16:00:35.948Z,13.87
2019-04-01T16:03:04.575Z,14.50
2019-04-01T16:05:34.229Z,14.57
2019-04-01T16:08:02.882Z,14.37
2019-04-01T16:10:31.414Z,16.90
2019-04-01T16:12:59.951Z,16.00
2019-04-01T16:15:31.758Z,14.57
2019-04-01T16:17:58.627Z,15.50
2019-04-01T16:20:27.262Z,15.93
2019-04-01T16:22:55.864Z,15.50
2019-04-01T16:25:24.760Z,14.83
2019-04-01T16:27:53.223Z,14.60
2019-04-01T16:30:22.028Z,14.40
2019-04-01T16:32:50.646Z,15.67
2019-04-01T16:35:19.288Z,14.77
2019-04-01T16:37:47.829Z,15.77
2019-04-01T16:40:18.241Z,15.60
2019-04-01T16:42:47.312Z,15.17
2019-04-01T16:45:16.880Z,14.60
2019-04-01T16:47:48.311Z,13.90
2019-04-01T16:50:15.684Z,14.03
2019-04-01T16:52:44.219Z,14.97
2019-04-01T16:55:13.481Z,15.37
2019-04-01T16:57:42.034Z,14.40
2019-04-01T17:00:14.504Z,14.17
2019-04-01T17:02:42.588Z,14.70
2019-04-01T17:05:11.762Z,14.90
2019-04-01T17:07:41.169Z,15.13
2019-04-01T17:10:11.674Z,14.57
2019-04-01T17:12:40.303Z,15.10
2019-04-01T17:15:09.089Z,14.77
2019-04-01T17:17:38.119Z,15.50
2019-04-01T17:20:07.324Z,15.30
2019-04-01T17:22:36.096Z,14.70
2019-04-01T17:25:08.877Z,15.10
2019-04-01T17:27:37.444Z,15.70
2019-04-01T17:30:11.560Z,15.67
2019-04-01T17:32:40.044Z,14.90
2019-04-01T17:35:08.943Z,16.73
2019-04-01T17:37:38.127Z,15.47
2019-04-01T17:40:08.684Z,15.23
2019-04-01T17:42:39.292Z,16.17
2019-04-01T17:45:28.814Z,15.80
2019-04-01T17:48:00.330Z,16.03
2019-04-01T17:50:28.941Z,14.87
2019-04-01T17:52:57.776Z,15.13
2019-04-01T17:55:26.299Z,16.00
2019-04-01T17:57:54.864Z,14.80
2019-04-01T18:00:30.920Z,14.10
2019-04-01T18:02:59.475Z,15.10
2019-04-01T18:05:28.005Z,15.37
2019-04-01T18:07:56.566Z,14.67
2019-04-01T18:10:25.236Z,14.37
2019-04-01T18:12:54.156Z,14.73
2019-04-01T18:15:22.768Z,67.63
2019-04-01T18:17:51.399Z,18.20
2019-04-01T18:20:20.394Z,19.33
2019-04-01T18:22:49.161Z,16.27
2019-04-01T18:25:17.695Z,16.50
2019-04-01T18:27:46.261Z,17.83
2019-04-01T18:30:15.932Z,16.77
2019-04-01T18:32:45.485Z,16.90
2019-04-01T18:35:14.134Z,17.60
2019-04-01T18:37:42.970Z,16.07
2019-04-01T18:40:12.068Z,17.10
2019-04-01T18:42:40.528Z,16.20
2019-04-01T18:45:09.455Z,16.60
2019-04-01T18:47:39.038Z,16.73
2019-04-01T18:50:08.128Z,16.37
2019-04-01T18:52:38.148Z,16.10
2019-04-01T18:55:08.027Z,16.50
2019-04-01T18:57:36.701Z,16.33
2019-04-01T19:00:09.860Z,16.13
2019-04-01T19:02:38.397Z,16.90
2019-04-01T19:05:07.181Z,15.90
2019-04-01T19:07:35.840Z,16.03
2019-04-01T19:10:06.958Z,16.67
2019-04-01T19:12:36.144Z,15.80
2019-04-01T19:15:07.451Z,21.87
2019-04-01T19:17:37.551Z,26.43
2019-04-01T19:20:08.570Z,17.00
2019-04-01T19:22:37.259Z,15.73
2019-04-01T19:25:07.264Z,16.60
2019-04-01T19:27:35.894Z,15.77
2019-04-01T19:30:06.996Z,15.60
2019-04-01T19:32:35.552Z,17.23
2019-04-01T19:35:05.553Z,16.27
2019-04-01T19:37:34.053Z,17.30
2019-04-01T19:40:02.587Z,17.43
2019-04-01T19:42:31.060Z,16.03
2019-04-01T19:44:59.629Z,16.97
2019-04-01T19:47:28.172Z,16.13
2019-04-01T19:49:56.988Z,17.30
2019-04-01T19:52:26.327Z,17.83
2019-04-01T19:54:55.132Z,17.20
2019-04-01T19:57:23.741Z,17.17
2019-04-01T19:59:54.208Z,17.63
2019-04-01T20:02:22.504Z,17.60
2019-04-01T20:04:51.343Z,18.17
2019-04-01T20:07:20.804Z,17.30
2019-04-01T20:09:49.295Z,16.97
2019-04-01T20:12:17.842Z,17.50
2019-04-01T20:14:46.405Z,17.23
2019-04-01T20:17:15.309Z,18.00
2019-04-01T20:19:43.951Z,18.03
2019-04-01T20:22:12.488Z,18.17
2019-04-01T20:24:41.364Z,19.37
2019-04-01T20:27:10.064Z,18.80
2019-04-01T20:29:40.114Z,18.23
2019-04-01T20:32:17.128Z,18.70
2019-04-01T20:34:38.999Z,17.10
2019-04-01T20:37:07.565Z,18.33
2019-04-01T20:39:36.345Z,17.83
2019-04-01T20:42:07.241Z,18.53
2019-04-01T20:44:35.873Z,16.97
2019-04-01T20:47:04.773Z,16.40
2019-04-01T20:49:33.308Z,17.60
2019-04-01T20:52:01.803Z,17.90
2019-04-01T20:54:30.341Z,17.87
2019-04-01T20:56:58.917Z,17.93
2019-04-01T20:59:27.440Z,17.13
2019-04-01T21:01:55.932Z,17.50
2019-04-01T21:04:24.464Z,17.57
2019-04-01T21:06:52.951Z,17.53
2019-04-01T21:09:21.480Z,18.70
2019-04-01T21:11:49.967Z,19.03
2019-04-01T21:14:18.771Z,19.30
2019-04-01T21:16:47.565Z,17.70
2019-04-01T21:19:16.337Z,18.00
2019-04-01T21:21:45.164Z,17.27
2019-04-01T21:24:13.629Z,17.83
2019-04-01T21:26:42.187Z,19.20
2019-04-01T21:29:10.652Z,18.17
2019-04-01T21:31:39.472Z,18.70
2019-04-01T21:34:07.940Z,18.10
2019-04-01T21:36:37.173Z,16.90
2019-04-01T21:39:07.208Z,19.10
2019-04-01T21:41:35.700Z,17.27
2019-04-01T21:44:04.542Z,18.87
2019-04-01T21:46:33.106Z,19.30
2019-04-01T21:49:01.644Z,18.93
2019-04-01T21:51:30.208Z,17.60
2019-04-01T21:53:59.120Z,19.53
2019-04-01T21:56:28.412Z,17.00
2019-04-01T21:58:57.045Z,18.80
2019-04-01T22:01:25.604Z,18.33
2019-04-01T22:03:55.420Z,19.00
2019-04-01T22:06:24.112Z,19.70
2019-04-01T22:08:52.671Z,19.77
2019-04-01T22:11:21.203Z,18.77
2019-04-01T22:13:49.691Z,17.27
2019-04-01T22:16:19.132Z,17.50
2019-04-01T22:18:47.751Z,18.37
2019-04-01T22:21:16.211Z,17.13
2019-04-01T22:23:44.709Z,17.03
2019-04-01T22:26:13.244Z,15.67
2019-04-01T22:28:41.806Z,17.77
2019-04-01T22:31:10.707Z,17.67
2019-04-01T22:33:40.179Z,16.67
2019-04-01T22:36:09.209Z,17.07
2019-04-01T22:38:37.775Z,16.23
2019-04-01T22:41:06.580Z,16.00
2019-04-01T22:43:35.041Z,17.80
2019-04-01T22:46:03.668Z,16.17
2019-04-01T22:48:32.131Z,16.70
2019-04-01T22:51:00.695Z,17.30
2019-04-01T22:53:29.158Z,16.80
2019-04-01T22:55:57.726Z,16.47
2019-04-01T22:58:26.186Z,16.13
2019-04-01T23:00:54.752Z,17.17
2019-04-01T23:03:23.211Z,15.97
2019-04-01T23:05:51.711Z,16.57
2019-04-01T23:08:20.243Z,16.10
2019-04-01T23:10:49.076Z,15.90
2019-04-01T23:13:17.610Z,16.00
2019-04-01T23:15:46.549Z,15.83
2019-04-01T23:18:15.007Z,14.70
2019-04-01T23:20:43.474Z,15.80
2019-04-01T23:23:12.102Z,15.53
2019-04-01T23:25:40.643Z,15.23
2019-04-01T23:28:09.204Z,15.93
2019-04-01T23:30:37.744Z,16.03
2019-04-01T23:33:06.632Z,15.80
2019-04-01T23:35:35.175Z,15.90
2019-04-01T23:38:04.006Z,14.70
2019-04-01T23:40:32.878Z,13.83
2019-04-01T23:43:01.405Z,13.40
2019-04-01T23:45:29.939Z,14.43
2019-04-01T23:47:58.424Z,14.53
2019-04-01T23:50:26.888Z,14.77
2019-04-01T23:52:55.443Z,14.87
2019-04-01T23:55:24.241Z,14.30
2019-04-01T23:57:53.203Z,14.17
